createdAt,value
2023-05-06T00:00:17.572Z,26.26
2023-05-06T00:01:17.578Z,26.27
2023-05-06T00:02:17.525Z,26.24
2023-05-06T00:03:17.475Z,26.24
2023-05-06T00:04:17.386Z,26.24
2023-05-06T00:05:17.323Z,26.27
2023-05-06T00:06:17.294Z,26.27
2023-05-06T00:07:17.236Z,26.27
2023-05-06T00:08:17.190Z,26.26
2023-05-06T00:09:17.147Z,26.24
2023-05-06T00:10:17.112Z,26.26
2023-05-06T00:11:17.063Z,26.24
2023-05-06T00:12:17.173Z,26.26
2023-05-06T00:13:16.996Z,26.26
2023-05-06T00:14:16.913Z,26.21
2023-05-06T00:15:16.864Z,26.23
2023-05-06T00:16:16.841Z,26.24
2023-05-06T00:17:16.789Z,26.24
2023-05-06T00:18:16.752Z,26.26
2023-05-06T00:19:16.716Z,26.24
2023-05-06T00:20:16.660Z,26.21
2023-05-06T00:21:16.610Z,26.23
2023-05-06T00:22:16.587Z,26.21
2023-05-06T00:23:16.539Z,26.23
2023-05-06T00:24:16.497Z,26.24
2023-05-06T00:25:16.449Z,26.23
2023-05-06T00:26:16.411Z,26.24
2023-05-06T00:27:16.377Z,26.23
2023-05-06T00:28:16.350Z,26.20
2023-05-06T00:29:16.291Z,26.24
2023-05-06T00:30:16.248Z,26.21
2023-05-06T00:31:16.217Z,26.23
2023-05-06T00:32:16.155Z,26.24
2023-05-06T00:33:16.131Z,26.23
2023-05-06T00:34:16.061Z,26.20
2023-05-06T00:35:16.035Z,26.20
2023-05-06T00:36:15.991Z,26.23
2023-05-06T00:37:15.954Z,26.23
2023-05-06T00:38:15.903Z,26.21
2023-05-06T00:39:15.860Z,26.24
2023-05-06T00:40:15.843Z,26.20
2023-05-06T00:41:15.768Z,26.21
2023-05-06T00:42:15.723Z,26.24
2023-05-06T00:43:15.682Z,26.20
2023-05-06T00:44:15.690Z,26.23
2023-05-06T00:45:15.600Z,26.20
2023-05-06T00:46:15.563Z,26.21
2023-05-06T00:47:15.512Z,26.20
2023-05-06T00:48:15.514Z,26.20
2023-05-06T00:49:15.429Z,26.20
2023-05-06T00:50:15.385Z,26.20
2023-05-06T00:51:15.341Z,26.20
2023-05-06T00:52:15.297Z,26.17
2023-05-06T00:53:15.251Z,26.21
2023-05-06T00:54:15.218Z,26.17
2023-05-06T00:55:15.169Z,26.21
2023-05-06T00:56:15.127Z,26.20
2023-05-06T00:57:15.101Z,26.20
2023-05-06T00:58:15.076Z,26.20
2023-05-06T00:59:14.973Z,26.21
2023-05-06T01:00:14.961Z,26.20
2023-05-06T01:01:14.889Z,26.20
2023-05-06T01:02:14.875Z,26.20
2023-05-06T01:03:14.912Z,26.21
2023-05-06T01:04:14.726Z,26.19
2023-05-06T01:05:14.712Z,26.20
2023-05-06T01:06:14.633Z,26.19
2023-05-06T01:07:14.593Z,26.20
2023-05-06T01:08:14.523Z,26.16
2023-05-06T01:09:14.473Z,26.20
2023-05-06T01:10:14.426Z,26.21
2023-05-06T01:11:15.812Z,26.17
2023-05-06T01:12:14.325Z,26.17
2023-05-06T01:13:14.323Z,26.17
2023-05-06T01:14:14.204Z,26.17
2023-05-06T01:15:14.152Z,26.20
2023-05-06T01:16:14.115Z,26.19
2023-05-06T01:17:14.189Z,26.20
2023-05-06T01:18:14.012Z,26.16
2023-05-06T01:19:13.955Z,26.19
2023-05-06T01:20:13.921Z,26.17
2023-05-06T01:21:13.917Z,26.17
2023-05-06T01:22:13.813Z,26.19
2023-05-06T01:23:13.762Z,26.16
2023-05-06T01:24:13.720Z,26.19
2023-05-06T01:25:13.679Z,26.16
2023-05-06T01:26:13.622Z,26.14
2023-05-06T01:27:13.649Z,26.20
2023-05-06T01:28:13.527Z,26.14
2023-05-06T01:29:13.469Z,26.19
2023-05-06T01:30:13.433Z,26.17
2023-05-06T01:31:13.469Z,26.17
2023-05-06T01:32:13.400Z,26.19
2023-05-06T01:33:13.264Z,26.17
2023-05-06T01:34:13.216Z,26.16
2023-05-06T01:35:13.253Z,26.17
2023-05-06T01:36:13.128Z,26.19
2023-05-06T01:37:13.091Z,26.17
2023-05-06T01:38:13.048Z,26.16
2023-05-06T01:39:13.000Z,26.19
2023-05-06T01:40:12.953Z,26.17
2023-05-06T01:41:12.918Z,26.16
2023-05-06T01:42:12.887Z,26.16
2023-05-06T01:43:12.832Z,26.16
2023-05-06T01:44:12.775Z,26.17
2023-05-06T01:45:12.731Z,26.19
2023-05-06T01:46:12.690Z,26.16
2023-05-06T01:47:12.620Z,26.14
2023-05-06T01:48:12.583Z,26.16
2023-05-06T01:49:12.522Z,26.17
2023-05-06T01:50:12.492Z,26.16
2023-05-06T01:51:12.431Z,26.16
2023-05-06T01:52:12.325Z,26.16
2023-05-06T01:53:12.282Z,26.17
2023-05-06T01:54:12.199Z,26.16
2023-05-06T01:55:12.204Z,26.16
2023-05-06T01:56:12.093Z,26.16
2023-05-06T01:57:12.037Z,26.19
2023-05-06T01:58:11.995Z,26.14
2023-05-06T01:59:11.953Z,26.14
2023-05-06T02:00:11.914Z,26.16
2023-05-06T02:01:11.954Z,26.17
2023-05-06T02:02:11.818Z,26.16
2023-05-06T02:03:11.871Z,26.16
2023-05-06T02:04:11.738Z,26.16
2023-05-06T02:05:11.680Z,26.17
2023-05-06T02:06:11.559Z,26.13
2023-05-06T02:07:11.514Z,26.16
2023-05-06T02:08:11.464Z,26.14
2023-05-06T02:09:11.393Z,26.13
2023-05-06T02:10:11.334Z,26.17
2023-05-06T02:11:11.249Z,26.16
2023-05-06T02:12:11.182Z,26.16
2023-05-06T02:13:11.235Z,26.14
2023-05-06T02:14:11.093Z,26.13
2023-05-06T02:15:11.234Z,26.14
2023-05-06T02:16:11.022Z,26.14
2023-05-06T02:17:10.926Z,26.14
2023-05-06T02:18:10.876Z,26.16
2023-05-06T02:19:10.817Z,26.16
2023-05-06T02:20:10.889Z,26.12
2023-05-06T02:21:10.728Z,26.13
2023-05-06T02:22:10.710Z,26.14
2023-05-06T02:23:10.634Z,26.14
2023-05-06T02:24:10.577Z,26.14
2023-05-06T02:25:10.767Z,26.13
2023-05-06T02:26:10.491Z,26.13
2023-05-06T02:27:10.444Z,26.14
2023-05-06T02:28:10.454Z,26.13
2023-05-06T02:29:10.378Z,26.12
2023-05-06T02:30:10.355Z,26.13
2023-05-06T02:31:10.331Z,26.13
2023-05-06T02:32:10.273Z,26.12
2023-05-06T02:33:10.235Z,26.13
2023-05-06T02:34:10.205Z,26.13
2023-05-06T02:35:10.346Z,26.12
2023-05-06T02:36:10.178Z,26.13
2023-05-06T02:37:10.101Z,26.13
2023-05-06T02:38:10.068Z,26.13
2023-05-06T02:39:09.995Z,26.12
2023-05-06T02:40:09.957Z,26.10
2023-05-06T02:41:09.907Z,26.10
2023-05-06T02:42:09.863Z,26.10
2023-05-06T02:43:09.845Z,26.14
2023-05-06T02:44:09.797Z,26.12
2023-05-06T02:45:09.917Z,26.12
2023-05-06T02:46:09.737Z,26.12
2023-05-06T02:47:09.651Z,26.10
2023-05-06T02:48:09.604Z,26.12
2023-05-06T02:49:09.535Z,26.12
2023-05-06T02:50:09.509Z,26.12
2023-05-06T02:51:09.419Z,26.12
2023-05-06T02:52:09.365Z,26.10
2023-05-06T02:53:09.294Z,26.08
2023-05-06T02:54:09.206Z,26.10
2023-05-06T02:55:09.251Z,26.08
2023-05-06T02:56:09.076Z,26.08
2023-05-06T02:57:09.027Z,26.10
2023-05-06T02:58:09.012Z,26.12
2023-05-06T02:59:08.984Z,26.10
2023-05-06T03:00:08.902Z,26.10
2023-05-06T03:01:08.869Z,26.08
2023-05-06T03:02:08.691Z,26.10
2023-05-06T03:03:08.704Z,26.10
2023-05-06T03:04:08.572Z,26.10
2023-05-06T03:05:08.577Z,26.10
2023-05-06T03:06:08.359Z,26.08
2023-05-06T03:07:08.316Z,26.12
2023-05-06T03:08:08.364Z,26.07
2023-05-06T03:09:08.204Z,26.08
2023-05-06T03:10:08.126Z,26.10
2023-05-06T03:11:08.374Z,26.07
2023-05-06T03:12:08.010Z,26.12
2023-05-06T03:13:08.006Z,26.07
2023-05-06T03:14:07.913Z,26.06
2023-05-06T03:15:08.004Z,26.06
2023-05-06T03:16:07.864Z,26.08
2023-05-06T03:17:07.893Z,26.07
2023-05-06T03:18:07.877Z,26.06
2023-05-06T03:19:07.813Z,26.10
2023-05-06T03:20:07.697Z,26.08
2023-05-06T03:21:07.671Z,26.10
2023-05-06T03:22:07.556Z,26.10
2023-05-06T03:23:07.515Z,26.08
2023-05-06T03:24:07.455Z,26.08
2023-05-06T03:25:07.394Z,26.07
2023-05-06T03:26:07.275Z,26.07
2023-05-06T03:27:07.188Z,26.06
2023-05-06T03:28:07.135Z,26.07
2023-05-06T03:29:07.126Z,26.06
2023-05-06T03:30:07.120Z,26.07
2023-05-06T03:31:07.083Z,26.08
2023-05-06T03:32:06.955Z,26.07
2023-05-06T03:33:06.934Z,26.07
2023-05-06T03:34:06.813Z,26.06
2023-05-06T03:35:06.742Z,26.07
2023-05-06T03:36:06.660Z,26.08
2023-05-06T03:37:06.590Z,26.07
2023-05-06T03:38:06.545Z,26.07
2023-05-06T03:39:06.479Z,26.07
2023-05-06T03:40:06.400Z,26.07
2023-05-06T03:41:06.304Z,26.07
2023-05-06T03:42:07.817Z,26.08
2023-05-06T03:43:06.151Z,26.07
2023-05-06T03:44:06.034Z,26.06
2023-05-06T03:45:05.985Z,26.06
2023-05-06T03:46:05.840Z,26.04
2023-05-06T03:47:05.715Z,26.06
2023-05-06T03:48:05.638Z,26.07
2023-05-06T03:49:05.498Z,26.06
2023-05-06T03:50:05.526Z,26.07
2023-05-06T03:51:05.270Z,26.08
2023-05-06T03:52:05.168Z,26.06
2023-05-06T03:53:05.048Z,26.06
2023-05-06T03:54:04.940Z,26.08
2023-05-06T03:55:04.836Z,26.04
2023-05-06T03:56:04.722Z,26.07
2023-05-06T03:57:04.608Z,26.04
2023-05-06T03:58:04.494Z,26.06
2023-05-06T03:59:04.379Z,26.06
2023-05-06T04:00:04.259Z,26.03
2023-05-06T04:01:04.147Z,26.04
2023-05-06T04:02:04.047Z,26.06
2023-05-06T04:03:03.969Z,26.04
2023-05-06T04:04:03.848Z,26.04
2023-05-06T04:05:03.694Z,26.04
2023-05-06T04:06:03.624Z,26.06
2023-05-06T04:07:03.551Z,26.06
2023-05-06T04:08:03.375Z,26.04
2023-05-06T04:09:03.244Z,26.06
2023-05-06T04:10:03.132Z,26.04
2023-05-06T04:11:03.016Z,26.04
2023-05-06T04:12:02.970Z,26.06
2023-05-06T04:13:02.841Z,26.04
2023-05-06T04:14:02.686Z,26.06
2023-05-06T04:15:02.588Z,26.04
2023-05-06T04:16:02.488Z,26.01
2023-05-06T04:17:02.356Z,26.04
2023-05-06T04:18:02.258Z,26.03
2023-05-06T04:19:03.769Z,26.01
2023-05-06T04:20:02.036Z,26.06
2023-05-06T04:21:01.926Z,26.03
2023-05-06T04:22:01.792Z,26.01
2023-05-06T04:23:01.695Z,26.03
2023-05-06T04:24:01.589Z,26.04
2023-05-06T04:25:01.490Z,26.04
2023-05-06T04:26:01.376Z,26.03
2023-05-06T04:27:01.267Z,26.03
2023-05-06T04:28:01.166Z,26.03
2023-05-06T04:29:01.051Z,26.03
2023-05-06T04:30:01.250Z,26.04
2023-05-06T04:31:00.823Z,26.03
2023-05-06T04:32:00.786Z,26.04
2023-05-06T04:33:00.627Z,26.03
2023-05-06T04:34:00.499Z,26.03
2023-05-06T04:35:00.388Z,26.04
2023-05-06T04:36:00.281Z,26.03
2023-05-06T04:37:00.175Z,26.01
2023-05-06T04:38:00.108Z,26.04
2023-05-06T04:38:59.972Z,26.03
2023-05-06T04:39:59.873Z,26.03
2023-05-06T04:40:59.778Z,26.03
2023-05-06T04:41:59.645Z,26.01
2023-05-06T04:42:59.537Z,26.01
2023-05-06T04:43:59.488Z,26.03
2023-05-06T04:44:59.314Z,26.00
2023-05-06T04:45:59.239Z,26.01
2023-05-06T04:46:59.089Z,26.01
2023-05-06T04:47:59.024Z,26.04
2023-05-06T04:48:58.885Z,26.00
2023-05-06T04:49:58.778Z,26.00
2023-05-06T04:50:58.677Z,26.01
2023-05-06T04:51:58.564Z,26.01
2023-05-06T04:52:58.474Z,26.03
2023-05-06T04:53:58.359Z,26.01
2023-05-06T04:54:58.250Z,26.01
2023-05-06T04:55:58.141Z,26.00
2023-05-06T04:56:58.039Z,26.03
2023-05-06T04:57:57.946Z,26.01
2023-05-06T04:58:57.827Z,26.01
2023-05-06T04:59:57.782Z,26.03
2023-05-06T05:00:57.687Z,26.01
2023-05-06T05:01:57.637Z,26.03
2023-05-06T05:02:57.604Z,25.99
2023-05-06T05:03:57.468Z,26.01
2023-05-06T05:04:57.850Z,26.00
2023-05-06T05:05:57.311Z,26.00
2023-05-06T05:06:57.233Z,26.03
2023-05-06T05:07:57.146Z,26.00
2023-05-06T05:08:57.159Z,25.99
2023-05-06T05:09:56.972Z,26.01
2023-05-06T05:10:56.892Z,26.01
2023-05-06T05:11:56.794Z,26.00
2023-05-06T05:12:56.813Z,26.01
2023-05-06T05:13:57.725Z,26.01
2023-05-06T05:14:56.695Z,25.99
2023-05-06T05:15:56.725Z,26.00
2023-05-06T05:16:56.547Z,25.97
2023-05-06T05:17:56.501Z,26.01
2023-05-06T05:18:56.335Z,26.01
2023-05-06T05:19:56.232Z,26.00
2023-05-06T05:20:56.190Z,25.99
2023-05-06T05:21:56.113Z,26.01
2023-05-06T05:22:56.082Z,25.97
2023-05-06T05:23:56.042Z,25.99
2023-05-06T05:24:55.961Z,25.99
2023-05-06T05:25:55.912Z,25.99
2023-05-06T05:26:55.853Z,25.99
2023-05-06T05:27:55.810Z,25.99
2023-05-06T05:28:55.771Z,25.97
2023-05-06T05:29:55.711Z,25.99
2023-05-06T05:30:55.678Z,25.99
2023-05-06T05:31:55.595Z,25.99
2023-05-06T05:32:55.629Z,25.99
2023-05-06T05:33:55.520Z,25.99
2023-05-06T05:34:55.427Z,26.00
2023-05-06T05:35:55.346Z,26.00
2023-05-06T05:36:55.229Z,25.97
2023-05-06T05:37:55.151Z,26.00
2023-05-06T05:38:55.063Z,25.99
2023-05-06T05:39:54.967Z,25.99
2023-05-06T05:40:54.869Z,25.99
2023-05-06T05:41:54.792Z,25.99
2023-05-06T05:42:54.712Z,26.00
2023-05-06T05:43:54.617Z,25.99
2023-05-06T05:44:54.516Z,25.99
2023-05-06T05:45:54.476Z,25.99
2023-05-06T05:46:54.364Z,26.00
2023-05-06T05:47:54.409Z,26.00
2023-05-06T05:48:54.297Z,26.00
2023-05-06T05:49:54.289Z,26.00
2023-05-06T05:50:54.270Z,26.00
2023-05-06T05:51:54.254Z,26.00
2023-05-06T05:52:54.244Z,26.01
2023-05-06T05:53:54.230Z,26.00
2023-05-06T05:54:54.210Z,26.00
2023-05-06T05:55:54.335Z,26.00
2023-05-06T05:56:54.121Z,25.99
2023-05-06T05:57:54.051Z,25.99
2023-05-06T05:58:53.997Z,26.01
2023-05-06T05:59:53.923Z,25.99
2023-05-06T06:00:53.935Z,25.99
2023-05-06T06:01:53.774Z,26.00
2023-05-06T06:02:53.765Z,25.99
2023-05-06T06:03:53.708Z,25.99
2023-05-06T06:04:53.662Z,26.01
2023-05-06T06:05:53.556Z,26.00
2023-05-06T06:06:53.502Z,26.00
2023-05-06T06:07:53.378Z,26.00
2023-05-06T06:08:53.321Z,25.99
2023-05-06T06:09:53.223Z,26.00
2023-05-06T06:10:53.150Z,26.01
2023-05-06T06:11:53.083Z,26.00
2023-05-06T06:12:53.036Z,25.99
2023-05-06T06:13:53.096Z,26.03
2023-05-06T06:14:52.943Z,26.00
2023-05-06T06:15:52.936Z,25.99
2023-05-06T06:16:52.804Z,26.01
2023-05-06T06:17:52.736Z,26.01
2023-05-06T06:18:52.737Z,26.01
2023-05-06T06:19:52.679Z,26.03
2023-05-06T06:20:53.487Z,25.99
2023-05-06T06:21:52.452Z,26.03
2023-05-06T06:22:52.380Z,26.04
2023-05-06T06:23:52.302Z,26.06
2023-05-06T06:24:52.244Z,26.12
2023-05-06T06:25:52.234Z,26.07
2023-05-06T06:26:52.172Z,26.10
2023-05-06T06:27:52.163Z,26.06
2023-05-06T06:28:52.148Z,26.04
2023-05-06T06:29:52.061Z,26.06
2023-05-06T06:30:51.982Z,26.06
2023-05-06T06:31:51.935Z,26.06
2023-05-06T06:32:51.804Z,26.06
2023-05-06T06:33:51.645Z,26.07
2023-05-06T06:34:51.603Z,26.06
2023-05-06T06:35:51.737Z,26.10
2023-05-06T06:36:51.570Z,26.08
2023-05-06T06:37:51.554Z,26.08
2023-05-06T06:38:51.573Z,26.10
2023-05-06T06:39:51.537Z,26.10
2023-05-06T06:40:51.529Z,26.14
2023-05-06T06:41:51.451Z,26.17
2023-05-06T06:42:51.345Z,26.17
2023-05-06T06:43:51.328Z,26.19
2023-05-06T06:44:51.185Z,26.19
2023-05-06T06:45:51.160Z,26.21
2023-05-06T06:46:51.066Z,26.23
2023-05-06T06:47:50.985Z,26.20
2023-05-06T06:48:50.898Z,26.21
2023-05-06T06:49:50.860Z,26.19
2023-05-06T06:50:50.849Z,26.17
2023-05-06T06:51:50.754Z,26.21
2023-05-06T06:52:50.718Z,26.23
2023-05-06T06:53:50.659Z,26.23
2023-05-06T06:54:50.588Z,26.21
2023-05-06T06:55:50.555Z,26.23
2023-05-06T06:56:50.499Z,26.24
2023-05-06T06:57:50.467Z,26.26
2023-05-06T06:58:52.984Z,26.24
2023-05-06T06:59:50.317Z,26.23
2023-05-06T07:00:50.222Z,26.23
2023-05-06T07:01:50.108Z,26.23
2023-05-06T07:02:50.030Z,26.20
2023-05-06T07:03:49.934Z,26.23
2023-05-06T07:04:49.781Z,26.23
2023-05-06T07:05:49.684Z,26.23
2023-05-06T07:06:49.580Z,26.20
2023-05-06T07:07:49.516Z,26.20
2023-05-06T07:08:49.354Z,26.21
2023-05-06T07:09:49.248Z,26.23
2023-05-06T07:10:49.145Z,26.20
2023-05-06T07:11:49.022Z,26.20
2023-05-06T07:12:48.984Z,26.20
2023-05-06T07:13:48.816Z,26.21
2023-05-06T07:14:48.708Z,26.20
2023-05-06T07:15:48.608Z,26.23
2023-05-06T07:16:50.792Z,26.21
2023-05-06T07:17:48.445Z,26.23
2023-05-06T07:18:48.249Z,26.23
2023-05-06T07:19:48.153Z,26.23
2023-05-06T07:20:48.031Z,26.23
2023-05-06T07:21:47.924Z,26.23
2023-05-06T07:22:47.820Z,26.20
2023-05-06T07:23:47.824Z,26.21
2023-05-06T07:24:47.575Z,26.20
2023-05-06T07:25:47.470Z,26.21
2023-05-06T07:26:47.360Z,26.21
2023-05-06T07:27:47.240Z,26.23
2023-05-06T07:28:47.129Z,26.21
2023-05-06T07:29:47.011Z,26.24
2023-05-06T07:30:46.949Z,26.21
2023-05-06T07:31:46.814Z,26.24
2023-05-06T07:32:46.787Z,26.23
2023-05-06T07:33:46.584Z,26.23
2023-05-06T07:34:46.463Z,26.21
2023-05-06T07:35:46.372Z,26.21
2023-05-06T07:36:46.245Z,26.23
2023-05-06T07:37:46.118Z,26.24
2023-05-06T07:38:46.014Z,26.23
2023-05-06T07:39:46.144Z,26.24
2023-05-06T07:40:45.793Z,26.21
2023-05-06T07:41:45.670Z,26.23
2023-05-06T07:42:45.549Z,26.21
2023-05-06T07:43:45.442Z,26.21
2023-05-06T07:44:45.337Z,26.23
2023-05-06T07:45:45.224Z,26.21
2023-05-06T07:46:45.169Z,26.20
2023-05-06T07:47:45.069Z,26.21
2023-05-06T07:48:44.881Z,26.21
2023-05-06T07:49:44.787Z,26.23
2023-05-06T07:50:44.654Z,26.20
2023-05-06T07:51:44.546Z,26.20
2023-05-06T07:52:44.423Z,26.20
2023-05-06T07:53:44.307Z,26.19
2023-05-06T07:54:44.196Z,26.20
2023-05-06T07:55:44.081Z,26.20
2023-05-06T07:56:44.031Z,26.19
2023-05-06T07:57:44.054Z,26.17
2023-05-06T07:58:43.898Z,26.21
2023-05-06T07:59:43.810Z,26.20
2023-05-06T08:00:43.735Z,26.20
2023-05-06T08:01:43.684Z,26.19
2023-05-06T08:02:43.720Z,26.17
2023-05-06T08:03:43.884Z,26.17
2023-05-06T08:04:43.707Z,26.17
2023-05-06T08:05:43.511Z,26.17
2023-05-06T08:06:43.465Z,26.17
2023-05-06T08:07:43.424Z,26.17
2023-05-06T08:08:43.347Z,26.17
2023-05-06T08:09:43.277Z,26.19
2023-05-06T08:10:43.239Z,26.13
2023-05-06T08:11:43.187Z,26.17
2023-05-06T08:12:43.156Z,26.16
2023-05-06T08:13:43.054Z,26.16
2023-05-06T08:14:43.022Z,26.13
2023-05-06T08:15:42.950Z,26.14
2023-05-06T08:16:42.961Z,26.14
2023-05-06T08:17:42.868Z,26.13
2023-05-06T08:18:42.773Z,26.14
2023-05-06T08:19:42.661Z,26.14
2023-05-06T08:20:42.569Z,26.16
2023-05-06T08:21:42.457Z,26.14
2023-05-06T08:22:42.435Z,26.13
2023-05-06T08:23:42.411Z,26.13
2023-05-06T08:24:42.396Z,26.16
2023-05-06T08:25:42.367Z,26.12
2023-05-06T08:26:42.335Z,26.14
2023-05-06T08:27:42.543Z,26.14
2023-05-06T08:28:42.287Z,26.14
2023-05-06T08:29:42.208Z,26.16
2023-05-06T08:30:42.126Z,26.14
2023-05-06T08:31:42.090Z,26.14
2023-05-06T08:32:42.010Z,26.14
2023-05-06T08:33:41.902Z,26.16
2023-05-06T08:34:41.832Z,26.14
2023-05-06T08:35:41.782Z,26.16
2023-05-06T08:36:41.715Z,26.17
2023-05-06T08:37:41.626Z,26.16
2023-05-06T08:38:41.605Z,26.16
2023-05-06T08:39:41.589Z,26.16
2023-05-06T08:40:41.565Z,26.13
2023-05-06T08:41:41.533Z,26.14
2023-05-06T08:42:41.507Z,26.17
2023-05-06T08:43:41.490Z,26.14
2023-05-06T08:44:41.483Z,26.17
2023-05-06T08:45:41.443Z,26.14
2023-05-06T08:46:41.360Z,26.16
2023-05-06T08:47:41.355Z,26.16
2023-05-06T08:48:41.205Z,26.17
2023-05-06T08:49:41.156Z,26.14
2023-05-06T08:50:41.099Z,26.14
2023-05-06T08:51:40.999Z,26.14
2023-05-06T08:52:40.968Z,26.12
2023-05-06T08:53:40.913Z,26.14
2023-05-06T08:54:40.856Z,26.14
2023-05-06T08:55:40.788Z,26.13
2023-05-06T08:56:40.746Z,26.17
2023-05-06T08:57:40.708Z,26.16
2023-05-06T08:58:40.685Z,26.14
2023-05-06T08:59:40.723Z,26.16
2023-05-06T09:00:40.633Z,26.14
2023-05-06T09:01:40.743Z,26.13
2023-05-06T09:02:42.815Z,26.14
2023-05-06T09:03:40.519Z,26.16
2023-05-06T09:04:40.365Z,26.13
2023-05-06T09:05:40.259Z,26.16
2023-05-06T09:06:40.120Z,26.14
2023-05-06T09:07:40.010Z,26.14
2023-05-06T09:08:39.917Z,26.16
2023-05-06T09:09:39.801Z,26.16
2023-05-06T09:10:39.671Z,26.16
2023-05-06T09:11:39.557Z,26.16
2023-05-06T09:12:39.497Z,26.16
2023-05-06T09:13:39.338Z,26.19
2023-05-06T09:14:39.228Z,26.16
2023-05-06T09:15:39.121Z,26.17
2023-05-06T09:16:39.003Z,26.19
2023-05-06T09:17:38.907Z,26.17
2023-05-06T09:18:38.771Z,26.17
2023-05-06T09:19:38.656Z,26.20
2023-05-06T09:20:38.558Z,26.19
2023-05-06T09:21:38.448Z,26.23
2023-05-06T09:22:38.339Z,26.21
2023-05-06T09:23:38.235Z,26.24
2023-05-06T09:24:38.117Z,26.26
2023-05-06T09:25:38.005Z,26.27
2023-05-06T09:26:37.901Z,26.28
2023-05-06T09:27:37.860Z,26.28
2023-05-06T09:28:37.666Z,26.28
2023-05-06T09:29:37.546Z,26.30
2023-05-06T09:30:37.441Z,26.30
2023-05-06T09:31:37.483Z,26.31
2023-05-06T09:32:40.011Z,26.31
2023-05-06T09:33:37.079Z,26.31
2023-05-06T09:34:36.956Z,26.33
2023-05-06T09:35:36.863Z,26.35
2023-05-06T09:36:36.733Z,26.33
2023-05-06T09:37:36.639Z,26.37
2023-05-06T09:38:36.526Z,26.38
2023-05-06T09:39:36.406Z,26.37
2023-05-06T09:40:36.303Z,26.37
2023-05-06T09:41:36.185Z,26.38
2023-05-06T09:42:36.079Z,26.38
2023-05-06T09:43:35.967Z,26.37
2023-05-06T09:44:35.860Z,26.38
2023-05-06T09:45:35.754Z,26.38
2023-05-06T09:46:35.656Z,26.38
2023-05-06T09:47:35.732Z,26.38
2023-05-06T09:48:35.434Z,26.40
2023-05-06T09:49:35.315Z,26.38
2023-05-06T09:50:35.204Z,26.40
2023-05-06T09:51:35.087Z,26.41
2023-05-06T09:52:35.004Z,26.37
2023-05-06T09:53:34.870Z,26.41
2023-05-06T09:54:34.736Z,26.40
2023-05-06T09:55:34.631Z,26.40
2023-05-06T09:56:34.505Z,26.41
2023-05-06T09:57:34.395Z,26.38
2023-05-06T09:58:34.274Z,26.40
2023-05-06T09:59:34.158Z,26.40
2023-05-06T10:00:34.048Z,26.40
2023-05-06T10:01:37.163Z,26.40
2023-05-06T10:02:33.927Z,26.40
2023-05-06T10:03:33.900Z,26.41
2023-05-06T10:04:33.828Z,26.43
2023-05-06T10:05:33.473Z,26.43
2023-05-06T10:06:33.353Z,26.43
2023-05-06T10:07:33.235Z,26.40
2023-05-06T10:08:33.126Z,26.43
2023-05-06T10:09:32.999Z,26.41
2023-05-06T10:10:32.891Z,26.41
2023-05-06T10:11:32.774Z,26.43
2023-05-06T10:12:32.708Z,26.43
2023-05-06T10:13:32.559Z,26.43
2023-05-06T10:14:32.432Z,26.45
2023-05-06T10:15:32.329Z,26.44
2023-05-06T10:16:32.267Z,26.45
2023-05-06T10:17:32.093Z,26.45
2023-05-06T10:18:31.996Z,26.48
2023-05-06T10:19:31.925Z,26.48
2023-05-06T10:20:31.764Z,26.47
2023-05-06T10:21:31.654Z,26.51
2023-05-06T10:22:31.571Z,26.48
2023-05-06T10:23:31.441Z,26.47
2023-05-06T10:24:31.319Z,26.51
2023-05-06T10:25:31.234Z,26.51
2023-05-06T10:26:31.097Z,26.52
2023-05-06T10:27:30.966Z,26.52
2023-05-06T10:28:31.818Z,26.54
2023-05-06T10:29:30.800Z,26.52
2023-05-06T10:30:30.746Z,26.54
2023-05-06T10:31:30.689Z,26.52
2023-05-06T10:32:30.662Z,26.54
2023-05-06T10:33:30.588Z,26.55
2023-05-06T10:34:30.522Z,26.54
2023-05-06T10:35:30.466Z,26.54
2023-05-06T10:36:30.414Z,26.52
2023-05-06T10:37:30.358Z,26.54
2023-05-06T10:38:30.313Z,26.54
2023-05-06T10:39:30.234Z,26.55
2023-05-06T10:40:30.186Z,26.56
2023-05-06T10:41:30.137Z,26.58
2023-05-06T10:42:30.067Z,26.56
2023-05-06T10:43:30.020Z,26.54
2023-05-06T10:44:29.960Z,26.54
2023-05-06T10:45:29.954Z,26.52
2023-05-06T10:46:29.845Z,26.52
2023-05-06T10:47:29.786Z,26.55
2023-05-06T10:48:29.720Z,26.54
2023-05-06T10:49:29.658Z,26.54
2023-05-06T10:50:29.616Z,26.54
2023-05-06T10:51:29.605Z,26.54
2023-05-06T10:52:29.496Z,26.55
2023-05-06T10:53:29.434Z,26.56
2023-05-06T10:54:29.371Z,26.56
2023-05-06T10:55:29.311Z,26.52
2023-05-06T10:56:29.257Z,26.56
2023-05-06T10:57:29.198Z,26.56
2023-05-06T10:58:29.148Z,26.55
2023-05-06T10:59:29.083Z,26.55
2023-05-06T11:00:29.023Z,26.56
2023-05-06T11:01:29.065Z,26.59
2023-05-06T11:02:28.914Z,26.58
2023-05-06T11:03:28.886Z,26.56
2023-05-06T11:04:28.760Z,26.56
2023-05-06T11:05:28.684Z,26.56
2023-05-06T11:06:28.620Z,26.58
2023-05-06T11:07:28.645Z,26.55
2023-05-06T11:08:28.506Z,26.58
2023-05-06T11:09:28.441Z,26.56
2023-05-06T11:10:28.363Z,26.56
2023-05-06T11:11:28.293Z,26.56
2023-05-06T11:12:28.229Z,26.58
2023-05-06T11:13:28.441Z,26.55
2023-05-06T11:14:28.112Z,26.55
2023-05-06T11:15:28.044Z,26.58
2023-05-06T11:16:28.026Z,26.56
2023-05-06T11:17:27.936Z,26.56
2023-05-06T11:18:27.857Z,26.56
2023-05-06T11:19:27.794Z,26.56
2023-05-06T11:20:27.754Z,26.56
2023-05-06T11:21:27.649Z,26.54
2023-05-06T11:22:27.590Z,26.55
2023-05-06T11:23:27.591Z,26.56
2023-05-06T11:24:27.448Z,26.56
2023-05-06T11:25:27.374Z,26.55
2023-05-06T11:26:27.331Z,26.54
2023-05-06T11:27:27.242Z,26.54
2023-05-06T11:28:27.167Z,26.55
2023-05-06T11:29:27.134Z,26.55
2023-05-06T11:30:27.042Z,26.56
2023-05-06T11:31:27.031Z,26.55
2023-05-06T11:32:26.938Z,26.54
2023-05-06T11:33:26.858Z,26.54
2023-05-06T11:34:26.806Z,26.55
2023-05-06T11:35:26.732Z,26.55
2023-05-06T11:36:26.668Z,26.55
2023-05-06T11:37:26.656Z,26.54
2023-05-06T11:38:26.558Z,26.55
2023-05-06T11:39:26.545Z,26.55
2023-05-06T11:40:26.429Z,26.54
2023-05-06T11:41:26.366Z,26.51
2023-05-06T11:42:26.299Z,26.52
2023-05-06T11:43:26.232Z,26.54
2023-05-06T11:44:26.166Z,26.52
2023-05-06T11:45:26.118Z,26.55
2023-05-06T11:46:26.069Z,26.52
2023-05-06T11:47:25.974Z,26.54
2023-05-06T11:48:25.884Z,26.52
2023-05-06T11:49:25.800Z,26.54
2023-05-06T11:50:25.708Z,26.54
2023-05-06T11:51:25.640Z,26.51
2023-05-06T11:52:25.557Z,26.52
2023-05-06T11:53:25.485Z,26.52
2023-05-06T11:54:25.424Z,26.51
2023-05-06T11:55:25.401Z,26.52
2023-05-06T11:56:25.276Z,26.51
2023-05-06T11:57:25.197Z,26.54
2023-05-06T11:58:25.110Z,26.51
2023-05-06T11:59:25.039Z,26.51
2023-05-06T12:00:24.958Z,26.48
2023-05-06T12:01:24.890Z,26.47
2023-05-06T12:02:24.867Z,26.48
2023-05-06T12:03:24.973Z,26.47
2023-05-06T12:04:24.759Z,26.47
2023-05-06T12:05:24.608Z,26.51
2023-05-06T12:06:24.661Z,26.47
2023-05-06T12:07:24.465Z,26.47
2023-05-06T12:08:27.849Z,26.48
2023-05-06T12:09:24.283Z,26.47
2023-05-06T12:10:24.146Z,26.47
2023-05-06T12:11:24.136Z,26.44
2023-05-06T12:12:23.941Z,26.47
2023-05-06T12:13:23.817Z,26.47
2023-05-06T12:14:23.652Z,26.48
2023-05-06T12:15:23.526Z,26.50
2023-05-06T12:16:23.418Z,26.48
2023-05-06T12:17:23.291Z,26.50
2023-05-06T12:18:23.166Z,26.50
2023-05-06T12:19:23.056Z,26.48
2023-05-06T12:20:22.940Z,26.48
2023-05-06T12:21:22.803Z,26.51
2023-05-06T12:22:22.714Z,26.48
2023-05-06T12:23:22.553Z,26.48
2023-05-06T12:24:22.455Z,26.50
2023-05-06T12:25:22.326Z,26.50
2023-05-06T12:26:22.216Z,26.50
2023-05-06T12:27:22.096Z,26.48
2023-05-06T12:28:21.992Z,26.48
2023-05-06T12:29:21.877Z,26.47
2023-05-06T12:30:21.756Z,26.47
2023-05-06T12:31:21.743Z,26.50
2023-05-06T12:32:21.537Z,26.47
2023-05-06T12:33:21.397Z,26.48
2023-05-06T12:34:21.279Z,26.48
2023-05-06T12:35:21.163Z,26.50
2023-05-06T12:36:21.039Z,26.50
2023-05-06T12:37:20.913Z,26.48
2023-05-06T12:38:20.793Z,26.45
2023-05-06T12:39:20.687Z,26.47
2023-05-06T12:40:20.605Z,26.47
2023-05-06T12:41:20.545Z,26.47
2023-05-06T12:42:20.475Z,26.48
2023-05-06T12:43:20.482Z,26.47
2023-05-06T12:44:20.319Z,26.45
2023-05-06T12:45:20.255Z,26.45
2023-05-06T12:46:20.212Z,26.45
2023-05-06T12:47:20.113Z,26.48
2023-05-06T12:48:20.052Z,26.47
2023-05-06T12:49:19.974Z,26.48
2023-05-06T12:50:19.906Z,26.45
2023-05-06T12:51:19.842Z,26.45